sensor_id;sensor_type;location;lat;lon;timestamp;pressure;altitude;pressure_sealevel;temperature;humidity
10071;BME280;5074;53.720;10.014;2022-12-07T00:01:20;100791.59;;;1.15;100.00
10071;BME280;5074;53.720;10.014;2022-12-07T00:03:51;100791.66;;;1.20;100.00
10071;BME280;5074;53.720;10.014;2022-12-07T00:06:20;100787.25;;;1.22;100.00
10071;BME280;5074;53.720;10.014;2022-12-07T00:08:48;100791.66;;;1.25;100.00
10071;BME280;5074;53.720;10.014;2022-12-07T00:11:18;100784.63;;;1.25;100.00
10071;BME280;5074;53.720;10.014;2022-12-07T00:13:50;100776.72;;;1.25;100.00
10071;BME280;5074;53.720;10.014;2022-12-07T00:16:20;100772.38;;;1.29;100.00
10071;BME280;5074;53.720;10.014;2022-12-07T00:18:50;100773.22;;;1.31;100.00
10071;BME280;5074;53.720;10.014;2022-12-07T00:21:19;100776.72;;;1.30;100.00
10071;BME280;5074;53.720;10.014;2022-12-07T00:23:49;100778.50;;;1.31;100.00
10071;BME280;5074;53.720;10.014;2022-12-07T00:26:18;100772.38;;;1.32;100.00
10071;BME280;5074;53.720;10.014;2022-12-07T00:28:48;100773.25;;;1.37;100.00
10071;BME280;5074;53.720;10.014;2022-12-07T00:31:18;100774.13;;;1.34;100.00
10071;BME280;5074;53.720;10.014;2022-12-07T00:33:46;100764.47;;;1.32;100.00
10071;BME280;5074;53.720;10.014;2022-12-07T00:36:18;100765.34;;;1.32;100.00
10071;BME280;5074;53.720;10.014;2022-12-07T00:38:52;100756.56;;;1.33;100.00
10071;BME280;5074;53.720;10.014;2022-12-07T00:41:22;100762.69;;;1.34;100.00
10071;BME280;5074;53.720;10.014;2022-12-07T00:43:51;100759.19;;;1.35;100.00
10071;BME280;5074;53.720;10.014;2022-12-07T00:46:20;100755.69;;;1.37;100.00
10071;BME280;5074;53.720;10.014;2022-12-07T00:48:49;100746.03;;;1.36;100.00
10071;BME280;5074;53.720;10.014;2022-12-07T00:51:22;100739.91;;;1.36;100.00
10071;BME280;5074;53.720;10.014;2022-12-07T00:53:51;100741.63;;;1.37;100.00
10071;BME280;5074;53.720;10.014;2022-12-07T00:56:21;100733.72;;;1.32;100.00
10071;BME280;5074;53.720;10.014;2022-12-07T00:58:51;100731.09;;;1.31;100.00
10071;BME280;5074;53.720;10.014;2022-12-07T01:01:20;100728.47;;;1.26;100.00
10071;BME280;5074;53.720;10.014;2022-12-07T01:03:48;100725.81;;;1.26;100.00
10071;BME280;5074;53.720;10.014;2022-12-07T01:06:17;100728.47;;;1.31;100.00
10071;BME280;5074;53.720;10.014;2022-12-07T01:08:48;100729.31;;;1.28;100.00
10071;BME280;5074;53.720;10.014;2022-12-07T01:11:17;100726.69;;;1.30;100.00
10071;BME280;5074;53.720;10.014;2022-12-07T01:13:46;100723.19;;;1.29;100.00
10071;BME280;5074;53.720;10.014;2022-12-07T01:16:15;100713.53;;;1.25;100.00
10071;BME280;5074;53.720;10.014;2022-12-07T01:18:46;100720.56;;;1.23;100.00
10071;BME280;5074;53.720;10.014;2022-12-07T01:21:16;100727.56;;;1.23;100.00
10071;BME280;5074;53.720;10.014;2022-12-07T01:23:44;100717.91;;;1.20;100.00
10071;BME280;5074;53.720;10.014;2022-12-07T01:26:16;100728.41;;;1.17;100.00
10071;BME280;5074;53.720;10.014;2022-12-07T01:28:45;100719.66;;;1.13;100.00
10071;BME280;5074;53.720;10.014;2022-12-07T01:31:15;100717.00;;;1.15;100.00
10071;BME280;5074;53.720;10.014;2022-12-07T01:33:44;100721.38;;;1.10;100.00
10071;BME280;5074;53.720;10.014;2022-12-07T01:36:15;100712.59;;;1.06;100.00
10071;BME280;5074;53.720;10.014;2022-12-07T01:38:44;100706.47;;;1.04;100.00
10071;BME280;5074;53.720;10.014;2022-12-07T01:41:14;100705.56;;;0.99;100.00
10071;BME280;5074;53.720;10.014;2022-12-07T01:44:08;100712.59;;;1.01;100.00
10071;BME280;5074;53.720;10.014;2022-12-07T01:46:36;100713.47;;;1.02;100.00
10071;BME280;5074;53.720;10.014;2022-12-07T01:49:06;100711.69;;;1.02;100.00
10071;BME280;5074;53.720;10.014;2022-12-07T01:51:38;100718.72;;;1.02;100.00
10071;BME280;5074;53.720;10.014;2022-12-07T01:54:10;100711.69;;;0.99;100.00
10071;BME280;5074;53.720;10.014;2022-12-07T01:56:41;100718.72;;;0.99;100.00
10071;BME280;5074;53.720;10.014;2022-12-07T01:59:13;100707.31;;;0.97;100.00
10071;BME280;5074;53.720;10.014;2022-12-07T02:01:41;100703.78;;;0.93;100.00
10071;BME280;5074;53.720;10.014;2022-12-07T02:04:10;100709.06;;;0.93;100.00
10071;BME280;5074;53.720;10.014;2022-12-07T02:06:39;100706.41;;;0.93;100.00
10071;BME280;5074;53.720;10.014;2022-12-07T02:09:09;100719.59;;;0.96;100.00
10071;BME280;5074;53.720;10.014;2022-12-07T02:11:38;100706.44;;;0.99;100.00
10071;BME280;5074;53.720;10.014;2022-12-07T02:14:07;100718.72;;;1.00;100.00
10071;BME280;5074;53.720;10.014;2022-12-07T02:16:44;100715.22;;;1.03;100.00
10071;BME280;5074;53.720;10.014;2022-12-07T02:22:29;100709.06;;;0.96;100.00
10071;BME280;5074;53.720;10.014;2022-12-07T02:25:08;100714.31;;;0.92;100.00
10071;BME280;5074;53.720;10.014;2022-12-07T02:27:46;100708.19;;;0.93;100.00
10071;BME280;5074;53.720;10.014;2022-12-07T02:30:17;100703.78;;;0.95;100.00
10071;BME280;5074;53.720;10.014;2022-12-07T02:32:54;100702.03;;;0.95;100.00
10071;BME280;5074;53.720;10.014;2022-12-07T02:35:28;100697.66;;;0.94;100.00
10071;BME280;5074;53.720;10.014;2022-12-07T02:38:03;100698.50;;;0.87;100.00
10071;BME280;5074;53.720;10.014;2022-12-07T02:40:35;100701.16;;;0.89;100.00
10071;BME280;5074;53.720;10.014;2022-12-07T02:43:08;100696.75;;;0.84;100.00
10071;BME280;5074;53.720;10.014;2022-12-07T02:45:40;100704.63;;;0.80;100.00
10071;BME280;5074;53.720;10.014;2022-12-07T02:48:12;100705.50;;;0.76;100.00
10071;BME280;5074;53.720;10.014;2022-12-07T02:50:44;100710.75;;;0.73;100.00
10071;BME280;5074;53.720;10.014;2022-12-07T02:53:29;100708.97;;;0.68;100.00
10071;BME280;5074;53.720;10.014;2022-12-07T02:55:59;100703.69;;;0.65;100.00
10071;BME280;5074;53.720;10.014;2022-12-07T02:58:35;100708.06;;;0.65;100.00
10071;BME280;5074;53.720;10.014;2022-12-07T03:01:17;100699.28;;;0.58;100.00
10071;BME280;5074;53.720;10.014;2022-12-07T03:03:59;100701.00;;;0.59;100.00
10071;BME280;5074;53.720;10.014;2022-12-07T03:06:36;100706.25;;;0.55;100.00
10071;BME280;5074;53.720;10.014;2022-12-07T03:09:12;100707.16;;;0.52;100.00
10071;BME280;5074;53.720;10.014;2022-12-07T03:11:45;100707.09;;;0.47;100.00
10071;BME280;5074;53.720;10.014;2022-12-07T03:14:17;100710.63;;;0.45;100.00
10071;BME280;5074;53.720;10.014;2022-12-07T03:16:53;100714.09;;;0.41;100.00
10071;BME280;5074;53.720;10.014;2022-12-07T03:19:26;100715.81;;;0.37;100.00
10071;BME280;5074;53.720;10.014;2022-12-07T03:21:57;100716.69;;;0.36;100.00
10071;BME280;5074;53.720;10.014;2022-12-07T03:24:27;100720.19;;;0.32;100.00
10071;BME280;5074;53.720;10.014;2022-12-07T03:27:01;100707.00;;;0.29;100.00
10071;BME280;5074;53.720;10.014;2022-12-07T03:29:34;100708.75;;;0.27;100.00
10071;BME280;5074;53.720;10.014;2022-12-07T03:32:06;100711.38;;;0.25;100.00
10071;BME280;5074;53.720;10.014;2022-12-07T03:34:41;100714.00;;;0.24;100.00
10071;BME280;5074;53.720;10.014;2022-12-07T03:37:15;100700.81;;;0.17;100.00
10071;BME280;5074;53.720;10.014;2022-12-07T03:39:52;100715.72;;;0.22;100.00
10071;BME280;5074;53.720;10.014;2022-12-07T03:42:25;100716.59;;;0.16;100.00
10071;BME280;5074;53.720;10.014;2022-12-07T03:44:53;100716.63;;;0.24;100.00
10071;BME280;5074;53.720;10.014;2022-12-07T03:47:26;100714.84;;;0.21;100.00
10071;BME280;5074;53.720;10.014;2022-12-07T03:50:00;100713.06;;;0.19;100.00
10071;BME280;5074;53.720;10.014;2022-12-07T03:52:33;100718.31;;;0.17;100.00
10071;BME280;5074;53.720;10.014;2022-12-07T03:55:08;100722.69;;;0.13;100.00
10071;BME280;5074;53.720;10.014;2022-12-07T03:57:39;100715.66;;;0.09;100.00
10071;BME280;5074;53.720;10.014;2022-12-07T04:00:10;100715.63;;;0.06;100.00
10071;BME280;5074;53.720;10.014;2022-12-07T04:02:41;100712.97;;;0.03;100.00
10071;BME280;5074;53.720;10.014;2022-12-07T04:05:10;100700.72;;;0.02;100.00
10071;BME280;5074;53.720;10.014;2022-12-07T04:07:38;100712.06;;;0.01;100.00
10071;BME280;5074;53.720;10.014;2022-12-07T04:10:07;100713.81;;;-0.01;100.00
10071;BME280;5074;53.720;10.014;2022-12-07T04:12:35;100719.09;;;0.04;100.00
10071;BME280;5074;53.720;10.014;2022-12-07T04:15:04;100703.22;;;-0.13;100.00
10071;BME280;5074;53.720;10.014;2022-12-07T04:17:32;100725.19;;;-0.02;100.00
10071;BME280;5074;53.720;10.014;2022-12-07T04:20:02;100700.53;;;-0.20;100.00
10071;BME280;5074;53.720;10.014;2022-12-07T04:22:31;100716.44;;;-0.04;100.00
10071;BME280;5074;53.720;10.014;2022-12-07T04:24:59;100714.66;;;-0.10;100.00
10071;BME280;5074;53.720;10.014;2022-12-07T04:27:28;100723.41;;;-0.09;100.00
10071;BME280;5074;53.720;10.014;2022-12-07T04:29:56;100717.25;;;-0.11;100.00
10071;BME280;5074;53.720;10.014;2022-12-07T04:32:24;100715.44;;;-0.20;100.00
10071;BME280;5074;53.720;10.014;2022-12-07T04:34:52;100713.69;;;-0.18;100.00
10071;BME280;5074;53.720;10.014;2022-12-07T04:37:23;100732.94;;;-0.19;100.00
10071;BME280;5074;53.720;10.014;2022-12-07T04:39:51;100726.81;;;-0.20;100.00
10071;BME280;5074;53.720;10.014;2022-12-07T04:42:20;100725.06;;;-0.21;100.00
10071;BME280;5074;53.720;10.014;2022-12-07T04:44:48;100728.53;;;-0.23;100.00
10071;BME280;5074;53.720;10.014;2022-12-07T04:47:16;100725.00;;;-0.27;100.00
10071;BME280;5074;53.720;10.014;2022-12-07T04:49:44;100725.00;;;-0.27;100.00
10071;BME280;5074;53.720;10.014;2022-12-07T04:52:12;100718.84;;;-0.30;100.00
10071;BME280;5074;53.720;10.014;2022-12-07T04:54:42;100724.06;;;-0.35;100.00
10071;BME280;5074;53.720;10.014;2022-12-07T04:57:10;100722.31;;;-0.36;100.00
10071;BME280;5074;53.720;10.014;2022-12-07T04:59:38;100723.19;;;-0.36;100.00
10071;BME280;5074;53.720;10.014;2022-12-07T05:02:11;100731.06;;;-0.37;100.00
10071;BME280;5074;53.720;10.014;2022-12-07T05:04:40;100719.63;;;-0.42;100.00
10071;BME280;5074;53.720;10.014;2022-12-07T05:07:08;100729.28;;;-0.40;100.00
10071;BME280;5074;53.720;10.014;2022-12-07T05:09:36;100720.53;;;-0.40;100.00
10071;BME280;5074;53.720;10.014;2022-12-07T05:12:05;100722.25;;;-0.41;100.00
10071;BME280;5074;53.720;10.014;2022-12-07T05:14:33;100719.63;;;-0.39;100.00
10071;BME280;5074;53.720;10.014;2022-12-07T05:17:02;100720.53;;;-0.40;100.00
10071;BME280;5074;53.720;10.014;2022-12-07T05:19:30;100724.94;;;-0.36;100.00
10071;BME280;5074;53.720;10.014;2022-12-07T05:21:58;100721.34;;;-0.44;100.00
10071;BME280;5074;53.720;10.014;2022-12-07T05:24:27;100722.22;;;-0.45;100.00
10071;BME280;5074;53.720;10.014;2022-12-07T05:26:55;100717.81;;;-0.48;100.00
10071;BME280;5074;53.720;10.014;2022-12-07T05:29:24;100714.34;;;-0.42;100.00
10071;BME280;5074;53.720;10.014;2022-12-07T05:31:52;100719.59;;;-0.44;100.00
10071;BME280;5074;53.720;10.014;2022-12-07T05:34:20;100718.72;;;-0.46;100.00
10071;BME280;5074;53.720;10.014;2022-12-07T05:36:49;100713.50;;;-0.43;100.00
10071;BME280;5074;53.720;10.014;2022-12-07T05:39:17;100720.47;;;-0.45;100.00
10071;BME280;5074;53.720;10.014;2022-12-07T05:41:45;100702.03;;;-0.49;100.00
10071;BME280;5074;53.720;10.014;2022-12-07T05:44:31;100711.72;;;-0.44;100.00
10071;BME280;5074;53.720;10.014;2022-12-07T05:46:59;100708.19;;;-0.47;100.00
10071;BME280;5074;53.720;10.014;2022-12-07T05:49:28;100716.94;;;-0.47;100.00
10071;BME280;5074;53.720;10.014;2022-12-07T05:51:56;100721.31;;;-0.50;100.00
10071;BME280;5074;53.720;10.014;2022-12-07T05:54:24;100714.31;;;-0.50;100.00
10071;BME280;5074;53.720;10.014;2022-12-07T05:56:52;100709.91;;;-0.51;100.00
10071;BME280;5074;53.720;10.014;2022-12-07T05:59:20;100715.13;;;-0.56;100.00
10071;BME280;5074;53.720;10.014;2022-12-07T06:01:53;100712.47;;;-0.59;100.00
10071;BME280;5074;53.720;10.014;2022-12-07T06:04:22;100702.84;;;-0.58;100.00
10071;BME280;5074;53.720;10.014;2022-12-07T06:06:50;100698.44;;;-0.61;100.00
10071;BME280;5074;53.720;10.014;2022-12-07T06:09:19;100704.59;;;-0.60;100.00
10071;BME280;5074;53.720;10.014;2022-12-07T06:11:48;100697.56;;;-0.61;100.00
10071;BME280;5074;53.720;10.014;2022-12-07T06:14:33;100708.06;;;-0.61;100.00
10071;BME280;5074;53.720;10.014;2022-12-07T06:17:03;100705.44;;;-0.63;100.00
10071;BME280;5074;53.720;10.014;2022-12-07T06:19:32;100709.84;;;-0.59;100.00
10071;BME280;5074;53.720;10.014;2022-12-07T06:22:01;100707.22;;;-0.59;100.00
10071;BME280;5074;53.720;10.014;2022-12-07T06:24:29;100702.84;;;-0.58;100.00
10071;BME280;5074;53.720;10.014;2022-12-07T06:26:57;100698.47;;;-0.59;100.00
10071;BME280;5074;53.720;10.014;2022-12-07T06:29:26;100697.56;;;-0.61;100.00
10071;BME280;5074;53.720;10.014;2022-12-07T06:31:54;100697.63;;;-0.54;100.00
10071;BME280;5074;53.720;10.014;2022-12-07T06:34:27;100686.19;;;-0.62;100.00
10071;BME280;5074;53.720;10.014;2022-12-07T06:36:55;100700.25;;;-0.54;100.00
10071;BME280;5074;53.720;10.014;2022-12-07T06:39:25;100701.16;;;-0.53;100.00
10071;BME280;5074;53.720;10.014;2022-12-07T06:41:54;100696.78;;;-0.51;100.00
10071;BME280;5074;53.720;10.014;2022-12-07T06:44:23;100704.66;;;-0.51;100.00
10071;BME280;5074;53.720;10.014;2022-12-07T06:46:51;100696.78;;;-0.51;100.00
10071;BME280;5074;53.720;10.014;2022-12-07T06:49:41;100706.41;;;-0.53;100.00
10071;BME280;5074;53.720;10.014;2022-12-07T06:52:09;100701.16;;;-0.53;100.00
10071;BME280;5074;53.720;10.014;2022-12-07T06:54:37;100702.94;;;-0.50;100.00
10071;BME280;5074;53.720;10.014;2022-12-07T06:57:05;100696.78;;;-0.49;100.00
10071;BME280;5074;53.720;10.014;2022-12-07T06:59:33;100691.47;;;-0.59;100.00
10071;BME280;5074;53.720;10.014;2022-12-07T07:02:01;100711.72;;;-0.45;100.00
10071;BME280;5074;53.720;10.014;2022-12-07T07:04:30;100709.09;;;-0.45;100.00
10071;BME280;5074;53.720;10.014;2022-12-07T07:06:59;100701.22;;;-0.44;100.00
10071;BME280;5074;53.720;10.014;2022-12-07T07:09:27;100710.88;;;-0.41;100.00
10071;BME280;5074;53.720;10.014;2022-12-07T07:11:55;100706.47;;;-0.42;100.00
10071;BME280;5074;53.720;10.014;2022-12-07T07:14:23;100700.41;;;-0.35;100.00
10071;BME280;5074;53.720;10.014;2022-12-07T07:16:51;100703.94;;;-0.34;100.00
10071;BME280;5074;53.720;10.014;2022-12-07T07:19:20;100707.44;;;-0.32;100.00
10071;BME280;5074;53.720;10.014;2022-12-07T07:21:48;100699.56;;;-0.32;100.00
10071;BME280;5074;53.720;10.014;2022-12-07T07:24:18;100705.69;;;-0.32;100.00
10071;BME280;5074;53.720;10.014;2022-12-07T07:26:46;100709.22;;;-0.30;100.00
10071;BME280;5074;53.720;10.014;2022-12-07T07:29:14;100706.59;;;-0.31;100.00
10071;BME280;5074;53.720;10.014;2022-12-07T07:31:42;100712.72;;;-0.31;100.00
10071;BME280;5074;53.720;10.014;2022-12-07T07:34:10;100711.00;;;-0.29;100.00
10071;BME280;5074;53.720;10.014;2022-12-07T07:36:38;100713.63;;;-0.29;100.00
10071;BME280;5074;53.720;10.014;2022-12-07T07:39:06;100721.53;;;-0.26;100.00
10071;BME280;5074;53.720;10.014;2022-12-07T07:41:36;100723.28;;;-0.23;100.00
10071;BME280;5074;53.720;10.014;2022-12-07T07:44:04;100725.06;;;-0.21;100.00
10071;BME280;5074;53.720;10.014;2022-12-07T07:46:32;100725.06;;;-0.18;100.00
10071;BME280;5074;53.720;10.014;2022-12-07T07:49:00;100719.88;;;-0.14;100.00
10071;BME280;5074;53.720;10.014;2022-12-07T07:51:29;100724.22;;;-0.15;100.00
10071;BME280;5074;53.720;10.014;2022-12-07T07:53:57;100732.13;;;-0.12;100.00
10071;BME280;5074;53.720;10.014;2022-12-07T07:56:25;100730.41;;;-0.11;100.00
10071;BME280;5074;53.720;10.014;2022-12-07T07:58:54;100728.66;;;-0.09;100.00
10071;BME280;5074;53.720;10.014;2022-12-07T08:01:22;100724.31;;;-0.06;100.00
10071;BME280;5074;53.720;10.014;2022-12-07T08:03:51;100726.94;;;-0.07;100.00
10071;BME280;5074;53.720;10.014;2022-12-07T08:06:19;100726.94;;;-0.07;100.00
10071;BME280;5074;53.720;10.014;2022-12-07T08:08:47;100729.56;;;-0.04;100.00
10071;BME280;5074;53.720;10.014;2022-12-07T08:11:15;100729.59;;;-0.03;100.00
10071;BME280;5074;53.720;10.014;2022-12-07T08:13:44;100731.31;;;-0.05;100.00
10071;BME280;5074;53.720;10.014;2022-12-07T08:16:14;100732.19;;;-0.04;100.00
10071;BME280;5074;53.720;10.014;2022-12-07T08:18:43;100724.31;;;-0.04;100.00
10071;BME280;5074;53.720;10.014;2022-12-07T08:21:13;100723.50;;;0.02;100.00
10071;BME280;5074;53.720;10.014;2022-12-07T08:23:41;100715.59;;;0.02;100.00
10071;BME280;5074;53.720;10.014;2022-12-07T08:26:10;100718.22;;;0.00;100.00
10071;BME280;5074;53.720;10.014;2022-12-07T08:28:39;100714.75;;;0.07;100.00
10071;BME280;5074;53.720;10.014;2022-12-07T08:31:08;100713.03;;;0.09;100.00
10071;BME280;5074;53.720;10.014;2022-12-07T08:33:40;100722.69;;;0.13;100.00
10071;BME280;5074;53.720;10.014;2022-12-07T08:36:09;100725.31;;;0.13;100.00
10071;BME280;5074;53.720;10.014;2022-12-07T08:38:39;100717.44;;;0.13;100.00
10071;BME280;5074;53.720;10.014;2022-12-07T08:41:22;100720.94;;;0.17;100.00
10071;BME280;5074;53.720;10.014;2022-12-07T08:43:51;100725.34;;;0.21;100.00
10071;BME280;5074;53.720;10.014;2022-12-07T08:46:21;100720.97;;;0.22;100.00
10071;BME280;5074;53.720;10.014;2022-12-07T08:48:56;100717.47;;;0.24;100.00
10071;BME280;5074;53.720;10.014;2022-12-07T08:51:26;100723.66;;;0.26;100.00
10071;BME280;5074;53.720;10.014;2022-12-07T08:53:55;100720.19;;;0.32;100.00
10071;BME280;5074;53.720;10.014;2022-12-07T08:56:24;100726.31;;;0.32;100.00
10071;BME280;5074;53.720;10.014;2022-12-07T08:58:53;100727.19;;;0.34;100.00
10071;BME280;5074;53.720;10.014;2022-12-07T09:01:21;100723.69;;;0.37;100.00
10071;BME280;5074;53.720;10.014;2022-12-07T09:03:49;100724.63;;;0.41;100.00
10071;BME280;5074;53.720;10.014;2022-12-07T09:06:19;100725.50;;;0.43;100.00
10071;BME280;5074;53.720;10.014;2022-12-07T09:08:50;100729.03;;;0.45;100.00
10071;BME280;5074;53.720;10.014;2022-12-07T09:11:19;100724.66;;;0.48;100.00
10071;BME280;5074;53.720;10.014;2022-12-07T09:13:54;100726.41;;;0.51;100.00
10071;BME280;5074;53.720;10.014;2022-12-07T09:16:22;100733.41;;;0.49;100.00
10071;BME280;5074;53.720;10.014;2022-12-07T09:18:50;100731.69;;;0.56;100.00
10071;BME280;5074;53.720;10.014;2022-12-07T09:21:20;100738.72;;;0.57;100.00
10071;BME280;5074;53.720;10.014;2022-12-07T09:23:48;100732.63;;;0.62;100.00
10071;BME280;5074;53.720;10.014;2022-12-07T09:26:16;100730.00;;;0.64;100.00
10071;BME280;5074;53.720;10.014;2022-12-07T09:28:44;100737.03;;;0.68;100.00
10071;BME280;5074;53.720;10.014;2022-12-07T09:31:12;100733.56;;;0.75;100.00
10071;BME280;5074;53.720;10.014;2022-12-07T09:33:54;100722.13;;;0.72;100.00
10071;BME280;5074;53.720;10.014;2022-12-07T09:36:24;100727.41;;;0.76;100.00
10071;BME280;5074;53.720;10.014;2022-12-07T09:38:53;100723.06;;;0.81;100.00
10071;BME280;5074;53.720;10.014;2022-12-07T09:41:22;100722.19;;;0.82;100.00
10071;BME280;5074;53.720;10.014;2022-12-07T09:43:52;100725.72;;;0.91;100.00
10071;BME280;5074;53.720;10.014;2022-12-07T09:46:20;100726.63;;;0.99;100.00
10071;BME280;5074;53.720;10.014;2022-12-07T09:48:49;100727.50;;;0.99;100.00
10071;BME280;5074;53.720;10.014;2022-12-07T09:51:21;100727.50;;;0.99;100.00
10071;BME280;5074;53.720;10.014;2022-12-07T09:53:54;100718.72;;;1.02;100.00
10071;BME280;5074;53.720;10.014;2022-12-07T09:56:24;100725.75;;;1.03;100.00
10071;BME280;5074;53.720;10.014;2022-12-07T09:58:58;100720.50;;;1.06;100.00
10071;BME280;5074;53.720;10.014;2022-12-07T10:01:30;100717.00;;;1.07;100.00
10071;BME280;5074;53.720;10.014;2022-12-07T10:04:08;100719.66;;;1.12;100.00
10071;BME280;5074;53.720;10.014;2022-12-07T10:06:37;100716.16;;;1.13;100.00
10071;BME280;5074;53.720;10.014;2022-12-07T10:09:10;100714.38;;;1.18;100.00
10071;BME280;5074;53.720;10.014;2022-12-07T10:11:58;100722.28;;;1.19;100.00
10071;BME280;5074;53.720;10.014;2022-12-07T10:14:27;100713.53;;;1.24;100.00
10071;BME280;5074;53.720;10.014;2022-12-07T10:17:34;100710.03;;;1.23;100.00
10071;BME280;5074;53.720;10.014;2022-12-07T10:20:16;100715.28;;;1.21;100.00
10071;BME280;5074;53.720;10.014;2022-12-07T10:23:08;100717.06;;;1.30;100.00
10071;BME280;5074;53.720;10.014;2022-12-07T10:25:43;100710.91;;;1.33;100.00
10071;BME280;5074;53.720;10.014;2022-12-07T10:28:16;100706.53;;;1.38;100.00
10071;BME280;5074;53.720;10.014;2022-12-07T10:30:53;100711.78;;;1.43;100.00
10071;BME280;5074;53.720;10.014;2022-12-07T10:33:31;100707.41;;;1.52;100.00
10071;BME280;5074;53.720;10.014;2022-12-07T10:36:09;100707.44;;;1.51;100.00
10071;BME280;5074;53.720;10.014;2022-12-07T10:38:45;100718.84;;;1.59;100.00
10071;BME280;5074;53.720;10.014;2022-12-07T10:41:15;100715.31;;;1.52;100.00
10071;BME280;5074;53.720;10.014;2022-12-07T10:43:47;100710.94;;;1.47;100.00
10071;BME280;5074;53.720;10.014;2022-12-07T10:47:01;100714.47;;;1.53;100.00
10071;BME280;5074;53.720;10.014;2022-12-07T10:50:11;100710.97;;;1.56;100.00
10071;BME280;5074;53.720;10.014;2022-12-07T10:53:01;100711.81;;;1.60;100.00
10071;BME280;5074;53.720;10.014;2022-12-07T10:55:41;100709.19;;;1.64;100.00
10071;BME280;5074;53.720;10.014;2022-12-07T10:58:34;100703.03;;;1.67;100.00
10071;BME280;5074;53.720;10.014;2022-12-07T11:01:13;100702.16;;;1.72;100.00
10071;BME280;5074;53.720;10.014;2022-12-07T11:03:54;100705.66;;;1.78;100.00
10071;BME280;5074;53.720;10.014;2022-12-07T11:06:34;100698.63;;;1.87;100.00
10071;BME280;5074;53.720;10.014;2022-12-07T11:09:16;100696.91;;;1.88;100.00
10071;BME280;5074;53.720;10.014;2022-12-07T11:12:20;100694.25;;;1.89;100.00
10071;BME280;5074;53.720;10.014;2022-12-07T11:14:57;100690.75;;;1.94;100.00
10071;BME280;5074;53.720;10.014;2022-12-07T11:17:34;100684.56;;;1.96;100.00
10071;BME280;5074;53.720;10.014;2022-12-07T11:20:14;100675.78;;;1.99;100.00
10071;BME280;5074;53.720;10.014;2022-12-07T11:22:54;100673.13;;;2.05;100.00
10071;BME280;5074;53.720;10.014;2022-12-07T11:25:29;100679.31;;;2.02;100.00
10071;BME280;5074;53.720;10.014;2022-12-07T11:28:15;100682.78;;;2.09;100.00
10071;BME280;5074;53.720;10.014;2022-12-07T11:30:54;100666.13;;;2.05;100.00
10071;BME280;5074;53.720;10.014;2022-12-07T11:33:29;100669.59;;;2.09;100.00
10071;BME280;5074;53.720;10.014;2022-12-07T11:36:09;100666.97;;;2.07;100.00
10071;BME280;5074;53.720;10.014;2022-12-07T11:38:49;100667.88;;;2.10;100.00
10071;BME280;5074;53.720;10.014;2022-12-07T11:41:22;100659.94;;;2.13;100.00
10071;BME280;5074;53.720;10.014;2022-12-07T11:43:57;100658.16;;;2.22;100.00
10071;BME280;5074;53.720;10.014;2022-12-07T11:46:41;100660.78;;;2.19;100.00
10071;BME280;5074;53.720;10.014;2022-12-07T11:49:14;100648.47;;;2.28;100.00
10071;BME280;5074;53.720;10.014;2022-12-07T11:51:48;100655.53;;;2.27;100.00
10071;BME280;5074;53.720;10.014;2022-12-07T11:54:20;100652.84;;;2.33;100.00
10071;BME280;5074;53.720;10.014;2022-12-07T11:56:53;100651.94;;;2.45;100.00
10071;BME280;5074;53.720;10.014;2022-12-07T11:59:29;100649.31;;;2.40;100.00
10071;BME280;5074;53.720;10.014;2022-12-07T12:02:11;100651.09;;;2.38;100.00
10071;BME280;5074;53.720;10.014;2022-12-07T12:04:48;100655.44;;;2.44;100.00
10071;BME280;5074;53.720;10.014;2022-12-07T12:07:21;100650.19;;;2.47;100.00
10071;BME280;5074;53.720;10.014;2022-12-07T12:10:18;100656.34;;;2.41;100.00
10071;BME280;5074;53.720;10.014;2022-12-07T12:12:57;100648.41;;;2.46;100.00
10071;BME280;5074;53.720;10.014;2022-12-07T12:16:07;100649.28;;;2.45;100.00
10071;BME280;5074;53.720;10.014;2022-12-07T12:18:53;100651.91;;;2.48;100.00
10071;BME280;5074;53.720;10.014;2022-12-07T12:21:26;100645.75;;;2.51;100.00
10071;BME280;5074;53.720;10.014;2022-12-07T12:23:57;100648.38;;;2.55;100.00
10071;BME280;5074;53.720;10.014;2022-12-07T12:26:28;100660.69;;;2.58;100.00
10071;BME280;5074;53.720;10.014;2022-12-07T12:28:59;100660.69;;;2.53;100.00
10071;BME280;5074;53.720;10.014;2022-12-07T12:31:32;100646.66;;;2.47;100.00
10071;BME280;5074;53.720;10.014;2022-12-07T12:36:48;100652.75;;;2.56;100.00
10071;BME280;5074;53.720;10.014;2022-12-07T12:39:16;100646.59;;;2.59;100.00
10071;BME280;5074;53.720;10.014;2022-12-07T12:42:01;100651.88;;;2.62;100.00
10071;BME280;5074;53.720;10.014;2022-12-07T12:47:56;100652.72;;;2.64;100.00
10071;BME280;5074;53.720;10.014;2022-12-07T12:50:28;100657.13;;;2.64;100.00
10071;BME280;5074;53.720;10.014;2022-12-07T12:53:15;100658.00;;;2.66;100.00
10071;BME280;5074;53.720;10.014;2022-12-07T12:59:24;100665.06;;;2.62;100.00
10071;BME280;5074;53.720;10.014;2022-12-07T13:01:55;100656.34;;;2.46;100.00
10071;BME280;5074;53.720;10.014;2022-12-07T13:07:54;100663.38;;;2.42;100.00
10071;BME280;5074;53.720;10.014;2022-12-07T13:10:33;100655.44;;;2.50;100.00
10071;BME280;5074;53.720;10.014;2022-12-07T13:13:04;100651.91;;;2.50;100.00
10071;BME280;5074;53.720;10.014;2022-12-07T13:15:35;100658.06;;;2.53;100.00
10071;BME280;5074;53.720;10.014;2022-12-07T13:18:23;100661.56;;;2.60;100.00
10071;BME280;5074;53.720;10.014;2022-12-07T13:20:53;100654.50;;;2.62;100.00
10071;BME280;5074;53.720;10.014;2022-12-07T13:23:29;100658.00;;;2.69;100.00
10071;BME280;5074;53.720;10.014;2022-12-07T13:26:09;100663.31;;;2.58;100.00
10071;BME280;5074;53.720;10.014;2022-12-07T13:28:46;100650.16;;;2.52;100.00
10071;BME280;5074;53.720;10.014;2022-12-07T13:31:31;100663.34;;;2.52;100.00